createdAt,value
2018-05-13T00:00:16.491Z,15.90
2018-05-13T00:02:44.745Z,15.90
2018-05-13T00:05:13.074Z,15.80
2018-05-13T00:07:42.071Z,15.80
2018-05-13T00:10:10.308Z,15.80
2018-05-13T00:12:38.584Z,15.70
2018-05-13T00:15:06.873Z,15.70
2018-05-13T00:17:35.146Z,15.70
2018-05-13T00:20:03.412Z,15.60
2018-05-13T00:22:31.787Z,15.60
2018-05-13T00:25:00.083Z,15.50
2018-05-13T00:27:28.343Z,15.40
2018-05-13T00:29:56.615Z,15.30
2018-05-13T00:32:24.875Z,15.30
2018-05-13T00:34:53.168Z,15.20
2018-05-13T00:37:21.443Z,15.20
2018-05-13T00:39:49.719Z,15.10
2018-05-13T00:42:17.991Z,15.10
2018-05-13T00:44:46.247Z,15.00
2018-05-13T00:47:14.583Z,14.90
2018-05-13T00:49:42.843Z,14.90
2018-05-13T00:52:11.211Z,14.80
2018-05-13T00:54:51.520Z,14.80
2018-05-13T00:57:20.545Z,14.80
2018-05-13T00:59:48.801Z,14.70
2018-05-13T01:02:17.099Z,14.70
2018-05-13T01:04:45.375Z,14.70
2018-05-13T01:07:13.651Z,14.60
2018-05-13T01:09:41.921Z,14.60
2018-05-13T01:12:10.218Z,14.60
2018-05-13T01:14:38.490Z,14.60
2018-05-13T01:17:06.735Z,14.60
2018-05-13T01:19:35.042Z,14.50
2018-05-13T01:22:05.143Z,14.50
2018-05-13T01:24:33.370Z,14.50
2018-05-13T01:27:02.387Z,14.40
2018-05-13T01:29:30.703Z,14.40
2018-05-13T01:31:58.966Z,14.40
2018-05-13T01:34:27.234Z,14.40
2018-05-13T01:36:55.491Z,14.40
2018-05-13T01:39:23.752Z,14.40
2018-05-13T01:41:52.768Z,14.30
2018-05-13T01:44:21.032Z,14.30
2018-05-13T01:46:49.331Z,14.30
2018-05-13T01:49:17.583Z,14.20
2018-05-13T01:51:45.887Z,14.20
2018-05-13T01:54:14.164Z,14.10
2018-05-13T01:56:42.422Z,14.10
2018-05-13T01:59:10.671Z,14.10
2018-05-13T02:01:39.706Z,14.00
2018-05-13T02:04:07.962Z,14.00
2018-05-13T02:06:36.219Z,14.00
2018-05-13T02:09:05.230Z,14.00
2018-05-13T02:11:33.523Z,13.90
2018-05-13T02:14:01.813Z,14.00
2018-05-13T02:16:30.079Z,13.90
2018-05-13T02:18:58.343Z,13.90
2018-05-13T02:21:26.628Z,13.90
2018-05-13T02:23:54.883Z,13.90
2018-05-13T02:26:23.136Z,13.90
2018-05-13T02:28:52.146Z,13.90
2018-05-13T02:31:20.408Z,13.80
2018-05-13T02:33:49.448Z,13.80
2018-05-13T02:36:17.724Z,13.80
2018-05-13T02:38:46.003Z,13.90
2018-05-13T02:41:14.279Z,13.80
2018-05-13T02:43:42.542Z,13.80
2018-05-13T02:46:10.823Z,13.80
2018-05-13T02:48:39.103Z,13.80
2018-05-13T02:51:07.361Z,13.70
2018-05-13T02:53:35.620Z,13.70
2018-05-13T02:56:03.879Z,13.60
2018-05-13T02:58:32.920Z,13.50
2018-05-13T03:01:01.191Z,13.50
2018-05-13T03:03:29.463Z,13.50
2018-05-13T03:05:57.723Z,13.40
2018-05-13T03:08:25.979Z,13.40
2018-05-13T03:10:55.013Z,13.40
2018-05-13T03:13:23.259Z,13.40
2018-05-13T03:15:51.523Z,13.40
2018-05-13T03:18:20.548Z,13.40
2018-05-13T03:20:48.829Z,13.40
2018-05-13T03:23:17.075Z,13.40
2018-05-13T03:25:45.343Z,13.40
2018-05-13T03:28:14.366Z,13.40
2018-05-13T03:30:42.644Z,13.40
2018-05-13T03:33:10.929Z,13.40
2018-05-13T03:35:39.203Z,13.40
2018-05-13T03:38:07.447Z,13.40
2018-05-13T03:40:35.686Z,13.40
2018-05-13T03:43:04.029Z,13.40
2018-05-13T03:45:32.299Z,13.40
2018-05-13T03:48:00.555Z,13.40
2018-05-13T03:50:28.862Z,13.50
2018-05-13T03:52:57.127Z,13.50
2018-05-13T03:55:25.407Z,13.60
2018-05-13T03:57:53.673Z,13.60
2018-05-13T04:00:21.918Z,13.70
2018-05-13T04:02:50.948Z,13.90
2018-05-13T04:05:19.228Z,13.90
2018-05-13T04:11:17.607Z,14.20
2018-05-13T04:13:57.980Z,14.40
2018-05-13T04:16:26.261Z,14.50
2018-05-13T04:18:54.527Z,14.70
2018-05-13T04:21:22.776Z,14.90
2018-05-13T04:23:51.084Z,15.10
2018-05-13T04:26:19.363Z,15.40
2018-05-13T04:28:47.635Z,15.60
2018-05-13T04:31:15.881Z,15.80
2018-05-13T04:33:44.895Z,16.30
2018-05-13T04:36:13.136Z,16.30
2018-05-13T04:38:42.164Z,16.90
2018-05-13T04:41:10.402Z,16.90
2018-05-13T04:43:39.430Z,17.50
2018-05-13T04:46:07.676Z,17.50
2018-05-13T04:48:36.694Z,18.10
2018-05-13T04:51:04.945Z,18.10
2018-05-13T04:53:33.967Z,18.70
2018-05-13T04:56:02.227Z,18.70
2018-05-13T04:58:30.466Z,18.90
2018-05-13T05:00:58.706Z,19.00
2018-05-13T05:03:26.964Z,19.20
2018-05-13T05:05:55.259Z,19.40
2018-05-13T05:08:23.536Z,19.50
2018-05-13T05:10:51.786Z,19.50
2018-05-13T05:13:20.088Z,19.70
2018-05-13T05:15:48.351Z,19.70
2018-05-13T05:18:16.623Z,19.50
2018-05-13T05:20:44.907Z,19.40
2018-05-13T05:23:13.159Z,19.30
2018-05-13T05:25:41.454Z,19.30
2018-05-13T05:28:09.698Z,19.70
2018-05-13T05:30:38.715Z,20.20
2018-05-13T05:33:06.964Z,20.10
2018-05-13T05:35:35.992Z,20.20
2018-05-13T05:38:04.236Z,20.20
2018-05-13T05:40:32.538Z,20.50
2018-05-13T05:43:00.783Z,20.70
2018-05-13T05:45:29.803Z,22.10
2018-05-13T05:47:58.084Z,22.10
2018-05-13T05:50:26.358Z,23.20
2018-05-13T05:52:54.635Z,23.70
2018-05-13T05:55:22.887Z,24.30
2018-05-13T05:57:51.188Z,24.60
2018-05-13T06:00:19.466Z,25.00
2018-05-13T06:02:47.754Z,25.10
2018-05-13T06:05:16.013Z,25.30
2018-05-13T06:07:44.282Z,25.80
2018-05-13T06:10:12.567Z,24.90
2018-05-13T06:12:40.834Z,24.50
2018-05-13T06:15:09.087Z,25.10
2018-05-13T06:17:37.391Z,24.80
2018-05-13T06:20:05.672Z,24.30
2018-05-13T06:22:33.944Z,24.30
2018-05-13T06:25:02.196Z,25.00
2018-05-13T06:27:30.447Z,26.40
2018-05-13T06:29:59.475Z,28.30
2018-05-13T06:32:27.720Z,28.30
2018-05-13T06:34:56.751Z,27.00
2018-05-13T06:37:25.003Z,26.90
2018-05-13T06:39:53.254Z,25.30
2018-05-13T06:42:22.287Z,24.30
2018-05-13T06:44:50.544Z,24.30
2018-05-13T06:47:18.854Z,24.40
2018-05-13T06:49:47.149Z,24.30
2018-05-13T06:52:15.491Z,24.60
2018-05-13T06:54:43.741Z,25.30
2018-05-13T06:57:12.764Z,24.70
2018-05-13T06:59:41.012Z,24.70
2018-05-13T07:02:09.311Z,24.90
2018-05-13T07:04:37.563Z,24.70
2018-05-13T07:07:05.815Z,24.40
2018-05-13T07:09:34.860Z,23.80
2018-05-13T07:12:03.131Z,23.80
2018-05-13T07:14:31.371Z,24.30
2018-05-13T07:17:00.382Z,24.60
2018-05-13T07:19:28.674Z,24.60
2018-05-13T07:21:56.933Z,25.00
2018-05-13T07:24:25.180Z,25.10
2018-05-13T07:26:53.503Z,25.20
2018-05-13T07:29:21.791Z,24.80
2018-05-13T07:31:50.055Z,24.20
2018-05-13T07:34:18.309Z,24.20
2018-05-13T07:36:46.556Z,24.30
2018-05-13T07:39:15.603Z,24.10
2018-05-13T07:41:43.855Z,24.10
2018-05-13T07:44:12.100Z,24.20
2018-05-13T07:46:41.119Z,24.00
2018-05-13T07:49:09.415Z,24.00
2018-05-13T07:51:37.671Z,24.30
2018-05-13T07:54:05.935Z,24.60
2018-05-13T07:56:34.971Z,24.70
2018-05-13T07:59:03.211Z,24.60
2018-05-13T08:01:31.467Z,24.70
2018-05-13T08:04:00.479Z,25.30
2018-05-13T08:06:28.779Z,25.30
2018-05-13T08:08:57.063Z,25.30
2018-05-13T08:11:25.335Z,25.60
2018-05-13T08:13:53.585Z,25.70
2018-05-13T08:16:21.860Z,25.90
2018-05-13T08:18:50.107Z,25.50
2018-05-13T08:21:19.198Z,26.10
2018-05-13T08:23:47.427Z,26.10
2018-05-13T08:26:15.694Z,26.20
2018-05-13T08:28:43.953Z,26.50
2018-05-13T08:31:12.257Z,26.80
2018-05-13T08:33:40.526Z,26.70
2018-05-13T08:36:08.808Z,26.20
2018-05-13T08:38:37.055Z,26.60
2018-05-13T08:41:05.354Z,27.20
2018-05-13T08:43:33.608Z,27.00
2018-05-13T08:46:01.901Z,26.80
2018-05-13T08:48:30.263Z,26.80
2018-05-13T08:50:58.456Z,26.00
2018-05-13T08:53:26.736Z,25.80
2018-05-13T08:55:55.011Z,25.80
2018-05-13T08:58:23.268Z,25.80
2018-05-13T09:00:51.517Z,25.60
2018-05-13T09:03:19.831Z,25.90
2018-05-13T09:05:48.112Z,26.10
2018-05-13T09:08:16.363Z,25.50
2018-05-13T09:10:44.760Z,25.20
2018-05-13T09:13:13.015Z,25.20
2018-05-13T09:15:41.317Z,25.50
2018-05-13T09:18:09.584Z,25.80
2018-05-13T09:20:37.911Z,26.10
2018-05-13T09:23:06.128Z,26.30
2018-05-13T09:25:34.362Z,26.30
2018-05-13T09:28:03.387Z,26.90
2018-05-13T09:30:31.628Z,26.80
2018-05-13T09:33:00.717Z,27.50
2018-05-13T09:35:28.947Z,27.50
2018-05-13T09:37:57.204Z,27.00
2018-05-13T09:40:25.912Z,25.90
2018-05-13T09:42:54.183Z,25.50
2018-05-13T09:45:22.454Z,25.60
2018-05-13T09:47:50.709Z,25.30
2018-05-13T09:50:18.963Z,24.80
2018-05-13T09:52:48.004Z,25.10
2018-05-13T09:55:16.280Z,25.10
2018-05-13T09:57:44.548Z,25.60
2018-05-13T10:00:12.787Z,25.50
2018-05-13T10:02:41.823Z,25.40
2018-05-13T10:05:10.076Z,25.40
2018-05-13T10:07:38.326Z,25.70
2018-05-13T10:10:07.892Z,26.50
2018-05-13T10:12:36.153Z,26.50
2018-05-13T10:15:04.407Z,26.30
2018-05-13T10:17:32.694Z,26.50
2018-05-13T10:20:00.951Z,26.90
2018-05-13T10:22:29.295Z,26.70
2018-05-13T10:24:57.527Z,26.50
2018-05-13T10:27:25.803Z,25.90
2018-05-13T10:29:54.079Z,25.40
2018-05-13T10:32:22.356Z,25.40
2018-05-13T10:34:50.635Z,25.50
2018-05-13T10:37:18.907Z,25.60
2018-05-13T10:39:47.187Z,25.30
2018-05-13T10:42:16.443Z,25.10
2018-05-13T10:44:45.472Z,24.80
2018-05-13T10:47:13.712Z,24.70
2018-05-13T10:49:42.737Z,24.80
2018-05-13T10:52:10.983Z,24.70
2018-05-13T10:54:40.007Z,24.80
2018-05-13T10:57:08.257Z,24.70
2018-05-13T10:59:37.276Z,24.80
2018-05-13T11:02:05.547Z,24.80
2018-05-13T11:04:33.823Z,24.80
2018-05-13T11:07:02.071Z,24.90
2018-05-13T11:09:30.320Z,24.80
2018-05-13T11:11:58.559Z,24.60
2018-05-13T11:14:26.817Z,24.60
2018-05-13T11:16:55.047Z,24.70
2018-05-13T11:19:23.283Z,24.90
2018-05-13T11:21:51.544Z,24.90
2018-05-13T11:24:19.783Z,24.90
2018-05-13T11:26:48.817Z,24.90
2018-05-13T11:29:17.033Z,24.90
2018-05-13T11:31:45.288Z,24.80
2018-05-13T11:34:13.539Z,24.70
2018-05-13T11:36:41.816Z,24.60
2018-05-13T11:39:10.087Z,24.60
2018-05-13T11:41:38.363Z,24.60
2018-05-13T11:44:06.603Z,24.60
2018-05-13T11:46:35.655Z,24.60
2018-05-13T11:49:03.917Z,24.60
2018-05-13T11:51:32.147Z,24.50
2018-05-13T11:54:01.193Z,24.50
2018-05-13T11:56:29.495Z,24.50
2018-05-13T11:58:58.427Z,24.70
2018-05-13T12:01:26.715Z,24.70
2018-05-13T12:03:54.996Z,24.60
2018-05-13T12:06:23.233Z,24.70
2018-05-13T12:08:52.245Z,24.60
2018-05-13T12:11:20.534Z,24.50
2018-05-13T12:13:48.814Z,24.40
2018-05-13T12:16:17.052Z,24.50
2018-05-13T12:18:46.179Z,24.90
2018-05-13T12:21:14.411Z,24.90
2018-05-13T12:23:42.650Z,24.80
2018-05-13T12:26:10.906Z,24.70
2018-05-13T12:28:39.227Z,24.70
2018-05-13T12:31:07.454Z,24.70
2018-05-13T12:33:36.353Z,24.70
2018-05-13T12:36:04.619Z,24.90
2018-05-13T12:38:32.890Z,25.00
2018-05-13T12:41:01.137Z,25.00
2018-05-13T12:43:30.135Z,24.80
2018-05-13T12:45:59.138Z,24.60
2018-05-13T12:48:27.427Z,24.60
2018-05-13T12:50:55.711Z,24.60
2018-05-13T12:53:23.978Z,24.60
2018-05-13T12:55:52.333Z,24.70
2018-05-13T12:58:20.608Z,24.70
2018-05-13T13:00:48.774Z,24.70
2018-05-13T13:03:17.779Z,24.80
2018-05-13T13:05:46.995Z,24.80
2018-05-13T13:08:15.276Z,24.80
2018-05-13T13:10:43.515Z,24.80
2018-05-13T13:13:12.527Z,24.90
2018-05-13T13:15:40.815Z,24.80
2018-05-13T13:18:09.916Z,25.00
2018-05-13T13:20:38.188Z,25.00
2018-05-13T13:23:06.426Z,24.90
2018-05-13T13:25:35.479Z,24.90
2018-05-13T13:28:03.698Z,24.90
2018-05-13T13:30:32.805Z,25.00
2018-05-13T13:33:00.951Z,25.00
2018-05-13T13:35:30.348Z,25.10
2018-05-13T13:37:58.594Z,25.00
2018-05-13T13:40:26.846Z,25.10
2018-05-13T13:42:55.124Z,25.00
2018-05-13T13:45:23.364Z,25.10
2018-05-13T13:47:52.371Z,25.20
2018-05-13T13:50:20.611Z,25.10
2018-05-13T13:52:48.850Z,25.10
2018-05-13T13:55:17.103Z,25.30
2018-05-13T13:57:45.396Z,25.50
2018-05-13T14:00:13.668Z,25.60
2018-05-13T14:02:41.915Z,25.70
2018-05-13T14:05:10.157Z,25.50
2018-05-13T14:07:38.491Z,25.40
2018-05-13T14:10:06.747Z,25.30
2018-05-13T14:12:35.805Z,25.30
2018-05-13T14:15:04.064Z,25.40
2018-05-13T14:17:32.303Z,25.50
2018-05-13T14:20:00.596Z,25.60
2018-05-13T14:22:29.574Z,25.60
2018-05-13T14:24:57.851Z,25.60
2018-05-13T14:27:26.127Z,25.50
2018-05-13T14:29:54.507Z,25.20
2018-05-13T14:32:22.747Z,24.90
2018-05-13T14:34:51.875Z,24.60
2018-05-13T14:37:20.147Z,24.60
2018-05-13T14:39:48.444Z,24.60
2018-05-13T14:42:17.419Z,24.70
2018-05-13T14:44:45.653Z,24.70
2018-05-13T14:47:14.666Z,25.30
2018-05-13T14:49:42.907Z,25.30
2018-05-13T14:52:11.144Z,25.50
2018-05-13T14:54:39.411Z,25.40
2018-05-13T14:57:07.659Z,25.30
2018-05-13T14:59:35.901Z,24.90
2018-05-13T15:02:04.145Z,24.60
2018-05-13T15:04:32.379Z,24.50
2018-05-13T15:07:01.398Z,24.60
2018-05-13T15:09:29.639Z,24.50
2018-05-13T15:11:58.676Z,24.90
2018-05-13T15:14:26.907Z,24.90
2018-05-13T15:16:55.915Z,25.10
2018-05-13T15:19:24.152Z,25.10
2018-05-13T15:21:53.199Z,25.20
2018-05-13T15:24:21.489Z,25.20
2018-05-13T15:26:49.740Z,25.20
2018-05-13T15:29:17.962Z,25.10
2018-05-13T15:31:46.308Z,24.80
2018-05-13T15:34:14.580Z,24.60
2018-05-13T15:36:42.902Z,24.60
2018-05-13T15:39:11.136Z,24.50
2018-05-13T15:41:39.412Z,24.50
2018-05-13T15:44:07.664Z,24.50
2018-05-13T15:46:35.960Z,24.40
2018-05-13T15:49:04.239Z,24.30
2018-05-13T15:51:32.471Z,24.20
2018-05-13T15:54:01.499Z,24.10
2018-05-13T15:56:29.731Z,24.10
2018-05-13T15:58:58.740Z,24.30
2018-05-13T16:01:27.743Z,24.30
2018-05-13T16:03:56.144Z,24.20
2018-05-13T16:06:24.451Z,24.20
2018-05-13T16:08:53.391Z,24.30
2018-05-13T16:11:21.682Z,24.20
2018-05-13T16:13:49.926Z,24.20
2018-05-13T16:16:18.932Z,24.20
2018-05-13T16:18:47.243Z,24.10
2018-05-13T16:21:15.507Z,24.10
2018-05-13T16:23:43.782Z,24.10
2018-05-13T16:26:12.016Z,24.10
2018-05-13T16:28:41.043Z,24.10
2018-05-13T16:31:09.283Z,24.10
2018-05-13T16:33:38.283Z,24.00
2018-05-13T16:36:07.303Z,24.00
2018-05-13T16:38:35.600Z,23.90
2018-05-13T16:41:04.569Z,23.90
2018-05-13T16:43:32.803Z,23.90
2018-05-13T16:46:01.813Z,23.90
2018-05-13T16:48:30.422Z,23.80
2018-05-13T16:50:58.707Z,23.80
2018-05-13T16:53:26.949Z,23.80
2018-05-13T16:55:55.963Z,23.70
2018-05-13T16:58:24.198Z,23.70
2018-05-13T17:00:53.688Z,23.60
2018-05-13T17:03:21.920Z,23.60
2018-05-13T17:05:50.158Z,23.60
2018-05-13T17:08:19.171Z,23.50
2018-05-13T17:10:47.455Z,23.50
2018-05-13T17:13:15.699Z,23.50
2018-05-13T17:15:44.704Z,23.40
2018-05-13T17:18:13.816Z,23.30
2018-05-13T17:20:42.096Z,23.30
2018-05-13T17:23:10.370Z,23.30
2018-05-13T17:25:38.604Z,23.30
2018-05-13T17:28:07.616Z,23.10
2018-05-13T17:30:36.631Z,23.00
2018-05-13T17:33:04.908Z,23.00
2018-05-13T17:35:33.147Z,23.00
2018-05-13T17:38:02.157Z,22.90
2018-05-13T17:40:30.464Z,22.90
2018-05-13T17:42:58.731Z,22.80
2018-05-13T17:45:26.973Z,22.80
2018-05-13T17:47:55.987Z,22.60
2018-05-13T17:50:24.268Z,22.60
2018-05-13T17:52:52.543Z,22.50
2018-05-13T17:55:20.802Z,22.50
2018-05-13T17:57:49.047Z,22.50
2018-05-13T18:00:17.287Z,22.40
2018-05-13T18:02:45.549Z,22.40
2018-05-13T18:05:13.836Z,22.30
2018-05-13T18:07:42.076Z,22.20
2018-05-13T18:10:10.367Z,22.10
2018-05-13T18:12:38.616Z,22.00
2018-05-13T18:15:07.642Z,21.80
2018-05-13T18:17:35.885Z,21.80
2018-05-13T18:20:04.890Z,21.60
2018-05-13T18:22:33.131Z,21.60
2018-05-13T18:25:01.382Z,21.40
2018-05-13T18:27:29.738Z,21.40
2018-05-13T18:29:57.982Z,21.30
2018-05-13T18:32:26.979Z,21.10
2018-05-13T18:34:55.219Z,21.00
2018-05-13T18:37:23.546Z,20.90
2018-05-13T18:39:51.787Z,20.80
2018-05-13T18:42:20.791Z,20.60
2018-05-13T18:44:49.812Z,20.50
2018-05-13T18:47:18.047Z,20.50
2018-05-13T18:49:47.056Z,20.20
2018-05-13T18:52:15.294Z,20.20
2018-05-13T18:54:43.535Z,20.10
2018-05-13T18:57:11.799Z,19.90
2018-05-13T18:59:40.074Z,19.90
2018-05-13T19:02:08.306Z,19.80
2018-05-13T19:04:36.632Z,19.70
2018-05-13T19:07:04.903Z,19.60
2018-05-13T19:09:33.147Z,19.60
2018-05-13T19:12:02.191Z,19.50
2018-05-13T19:14:30.455Z,19.50
2018-05-13T19:16:58.720Z,19.50
2018-05-13T19:19:26.967Z,19.40
2018-05-13T19:21:55.975Z,19.60
2018-05-13T19:24:24.224Z,19.50
2018-05-13T19:26:53.267Z,19.30
2018-05-13T19:29:21.515Z,19.30
2018-05-13T19:31:49.747Z,19.10
2018-05-13T19:34:18.088Z,19.00
2018-05-13T19:36:46.430Z,19.00
2018-05-13T19:39:14.612Z,18.90
2018-05-13T19:41:42.918Z,18.70
2018-05-13T19:44:11.187Z,18.60
2018-05-13T19:46:39.464Z,18.40
2018-05-13T19:49:07.943Z,18.30
2018-05-13T19:51:36.213Z,18.20
2018-05-13T19:54:04.541Z,18.20
2018-05-13T19:56:32.763Z,18.10
2018-05-13T19:59:01.046Z,18.00
2018-05-13T20:01:29.320Z,17.90
2018-05-13T20:03:57.596Z,17.90
2018-05-13T20:06:25.868Z,17.80
2018-05-13T20:08:54.203Z,17.70
2018-05-13T20:11:22.391Z,17.60
2018-05-13T20:13:51.398Z,17.50
2018-05-13T20:16:19.639Z,17.50
2018-05-13T20:18:47.959Z,17.40
2018-05-13T20:21:16.212Z,17.40
2018-05-13T20:23:45.211Z,17.20
2018-05-13T20:26:13.512Z,17.20
2018-05-13T20:28:41.743Z,17.10
2018-05-13T20:31:10.771Z,17.20
2018-05-13T20:33:39.020Z,17.20
2018-05-13T20:36:08.040Z,17.20
2018-05-13T20:38:36.275Z,17.20
2018-05-13T20:41:05.283Z,17.20
2018-05-13T20:43:33.588Z,17.20
2018-05-13T20:46:01.862Z,17.20
2018-05-13T20:48:30.095Z,17.10
2018-05-13T20:50:59.131Z,17.10
2018-05-13T20:53:27.407Z,17.00
2018-05-13T20:55:55.674Z,17.00
2018-05-13T20:58:23.951Z,16.90
2018-05-13T21:00:52.235Z,16.80
2018-05-13T21:03:20.472Z,16.70
2018-05-13T21:05:49.482Z,16.50
2018-05-13T21:08:17.880Z,16.50
2018-05-13T21:10:46.151Z,16.50
2018-05-13T21:13:14.391Z,16.40
2018-05-13T21:15:43.395Z,16.30
2018-05-13T21:18:11.663Z,16.30
2018-05-13T21:20:40.687Z,16.20
2018-05-13T21:23:08.932Z,16.20
2018-05-13T21:25:37.935Z,16.10
2018-05-13T21:28:06.239Z,16.10
2018-05-13T21:30:34.512Z,16.10
2018-05-13T21:33:02.759Z,16.00
2018-05-13T21:35:31.751Z,15.90
2018-05-13T21:38:00.004Z,15.90
2018-05-13T21:40:28.323Z,15.90
2018-05-13T21:42:56.584Z,15.80
2018-05-13T21:45:25.580Z,15.70
2018-05-13T21:47:53.825Z,15.70
2018-05-13T21:50:22.144Z,15.70
2018-05-13T21:52:50.385Z,15.60
2018-05-13T21:55:19.382Z,15.50
2018-05-13T21:57:48.412Z,15.50
2018-05-13T22:00:16.641Z,15.40
2018-05-13T22:02:45.646Z,15.40
2018-05-13T22:05:14.655Z,15.40
2018-05-13T22:07:42.899Z,15.40
2018-05-13T22:10:11.931Z,15.30
2018-05-13T22:12:40.200Z,15.30
2018-05-13T22:15:08.451Z,15.30
2018-05-13T22:17:37.459Z,15.20
2018-05-13T22:20:05.703Z,15.20
2018-05-13T22:22:34.037Z,15.20
2018-05-13T22:25:02.291Z,15.20
2018-05-13T22:27:30.583Z,15.10
2018-05-13T22:29:58.854Z,15.10
2018-05-13T22:32:27.104Z,15.00
2018-05-13T22:34:55.419Z,14.90
2018-05-13T22:37:23.682Z,14.90
2018-05-13T22:39:51.920Z,14.90
2018-05-13T22:42:20.947Z,14.90
2018-05-13T22:44:49.226Z,14.80
2018-05-13T22:47:17.492Z,14.80
2018-05-13T22:49:46.479Z,14.70
2018-05-13T22:52:14.858Z,14.70
2018-05-13T22:54:43.015Z,14.70
2018-05-13T22:57:12.045Z,14.60
2018-05-13T22:59:40.282Z,14.60
2018-05-13T23:02:09.310Z,14.60
2018-05-13T23:04:37.583Z,14.60
2018-05-13T23:07:05.828Z,14.50
2018-05-13T23:09:34.836Z,14.50
2018-05-13T23:12:03.083Z,14.50
2018-05-13T23:14:31.403Z,14.50
2018-05-13T23:16:59.663Z,14.50
2018-05-13T23:19:27.951Z,14.40
2018-05-13T23:21:56.226Z,14.40
2018-05-13T23:24:24.498Z,14.40
2018-05-13T23:26:52.736Z,14.30
2018-05-13T23:29:21.819Z,14.30
2018-05-13T23:31:50.045Z,14.30
2018-05-13T23:34:18.319Z,14.30
2018-05-13T23:36:46.558Z,14.20
2018-05-13T23:39:15.588Z,14.10
2018-05-13T23:41:43.843Z,14.10
2018-05-13T23:44:12.091Z,14.10
2018-05-13T23:46:41.131Z,14.00
2018-05-13T23:49:09.384Z,14.00
2018-05-13T23:51:37.699Z,14.00
2018-05-13T23:54:05.870Z,13.90
2018-05-13T23:56:34.132Z,13.90
2018-05-13T23:59:02.422Z,13.90
